sensor_id;sensor_type;location;lat;lon;timestamp;temperature;humidity
13346;DHT22;6742;48.036;15.780;2023-07-16T00:01:01;23.10;99.90
13346;DHT22;6742;48.036;15.780;2023-07-16T00:03:28;23.10;99.90
13346;DHT22;6742;48.036;15.780;2023-07-16T00:05:55;23.00;99.90
13346;DHT22;6742;48.036;15.780;2023-07-16T00:08:23;23.00;99.90
13346;DHT22;6742;48.036;15.780;2023-07-16T00:10:50;22.90;99.90
13346;DHT22;6742;48.036;15.780;2023-07-16T00:13:18;22.90;99.90
13346;DHT22;6742;48.036;15.780;2023-07-16T00:15:45;22.80;99.90
13346;DHT22;6742;48.036;15.780;2023-07-16T00:18:12;22.80;99.90
13346;DHT22;6742;48.036;15.780;2023-07-16T00:20:39;22.80;99.90
13346;DHT22;6742;48.036;15.780;2023-07-16T00:23:06;22.70;99.90
13346;DHT22;6742;48.036;15.780;2023-07-16T00:25:33;22.60;99.90
13346;DHT22;6742;48.036;15.780;2023-07-16T00:28:00;22.60;99.90
13346;DHT22;6742;48.036;15.780;2023-07-16T00:30:29;22.60;99.90
13346;DHT22;6742;48.036;15.780;2023-07-16T00:32:56;22.60;99.90
13346;DHT22;6742;48.036;15.780;2023-07-16T00:35:23;22.60;99.90
13346;DHT22;6742;48.036;15.780;2023-07-16T00:37:50;22.60;99.90
13346;DHT22;6742;48.036;15.780;2023-07-16T00:40:17;22.60;99.90
13346;DHT22;6742;48.036;15.780;2023-07-16T00:42:44;22.60;99.90
13346;DHT22;6742;48.036;15.780;2023-07-16T00:45:12;22.60;99.90
13346;DHT22;6742;48.036;15.780;2023-07-16T00:47:43;22.60;99.90
13346;DHT22;6742;48.036;15.780;2023-07-16T00:50:11;22.60;99.90
13346;DHT22;6742;48.036;15.780;2023-07-16T00:52:38;22.50;99.90
13346;DHT22;6742;48.036;15.780;2023-07-16T00:55:07;22.50;99.90
13346;DHT22;6742;48.036;15.780;2023-07-16T00:57:34;22.40;99.90
13346;DHT22;6742;48.036;15.780;2023-07-16T01:00:02;22.40;99.90
13346;DHT22;6742;48.036;15.780;2023-07-16T01:02:30;22.40;99.90
13346;DHT22;6742;48.036;15.780;2023-07-16T01:04:58;22.40;99.90
13346;DHT22;6742;48.036;15.780;2023-07-16T01:07:27;22.40;99.90
13346;DHT22;6742;48.036;15.780;2023-07-16T01:09:57;22.40;99.90
13346;DHT22;6742;48.036;15.780;2023-07-16T01:12:26;22.40;99.90
13346;DHT22;6742;48.036;15.780;2023-07-16T01:14:54;22.30;99.90
13346;DHT22;6742;48.036;15.780;2023-07-16T01:17:23;22.30;99.90
13346;DHT22;6742;48.036;15.780;2023-07-16T01:19:50;22.40;99.90
13346;DHT22;6742;48.036;15.780;2023-07-16T01:25:39;22.40;99.90
13346;DHT22;6742;48.036;15.780;2023-07-16T01:28:38;22.30;99.90
13346;DHT22;6742;48.036;15.780;2023-07-16T01:31:11;22.30;99.90
13346;DHT22;6742;48.036;15.780;2023-07-16T01:33:40;22.20;99.90
13346;DHT22;6742;48.036;15.780;2023-07-16T01:36:08;22.20;99.90
13346;DHT22;6742;48.036;15.780;2023-07-16T01:38:35;22.10;99.90
13346;DHT22;6742;48.036;15.780;2023-07-16T01:41:02;22.20;99.90
13346;DHT22;6742;48.036;15.780;2023-07-16T01:43:29;22.20;99.90
13346;DHT22;6742;48.036;15.780;2023-07-16T01:45:56;22.20;99.90
13346;DHT22;6742;48.036;15.780;2023-07-16T01:48:33;22.20;99.90
13346;DHT22;6742;48.036;15.780;2023-07-16T01:51:00;22.20;99.90
13346;DHT22;6742;48.036;15.780;2023-07-16T01:53:27;22.20;99.90
13346;DHT22;6742;48.036;15.780;2023-07-16T01:55:54;22.20;99.90
13346;DHT22;6742;48.036;15.780;2023-07-16T01:58:21;22.20;99.90
13346;DHT22;6742;48.036;15.780;2023-07-16T02:00:50;22.10;99.90
13346;DHT22;6742;48.036;15.780;2023-07-16T02:03:17;22.10;99.90
13346;DHT22;6742;48.036;15.780;2023-07-16T02:05:45;22.10;99.90
13346;DHT22;6742;48.036;15.780;2023-07-16T02:08:12;22.10;99.90
13346;DHT22;6742;48.036;15.780;2023-07-16T02:10:39;22.10;99.90
13346;DHT22;6742;48.036;15.780;2023-07-16T02:13:06;22.00;99.90
13346;DHT22;6742;48.036;15.780;2023-07-16T02:15:33;22.00;99.90
13346;DHT22;6742;48.036;15.780;2023-07-16T02:18:00;22.10;99.90
13346;DHT22;6742;48.036;15.780;2023-07-16T02:20:27;22.10;99.90
13346;DHT22;6742;48.036;15.780;2023-07-16T02:22:55;22.00;99.90
13346;DHT22;6742;48.036;15.780;2023-07-16T02:25:22;22.00;99.90
13346;DHT22;6742;48.036;15.780;2023-07-16T02:27:49;22.00;99.90
13346;DHT22;6742;48.036;15.780;2023-07-16T02:30:16;22.00;99.90
13346;DHT22;6742;48.036;15.780;2023-07-16T02:32:43;22.00;99.90
13346;DHT22;6742;48.036;15.780;2023-07-16T02:35:11;21.90;99.90
13346;DHT22;6742;48.036;15.780;2023-07-16T02:37:38;21.90;99.90
13346;DHT22;6742;48.036;15.780;2023-07-16T02:40:08;22.00;99.90
13346;DHT22;6742;48.036;15.780;2023-07-16T02:42:35;22.00;99.90
13346;DHT22;6742;48.036;15.780;2023-07-16T02:45:02;21.90;99.90
13346;DHT22;6742;48.036;15.780;2023-07-16T02:47:29;21.90;99.90
13346;DHT22;6742;48.036;15.780;2023-07-16T02:49:56;21.90;99.90
13346;DHT22;6742;48.036;15.780;2023-07-16T02:52:23;21.90;99.90
13346;DHT22;6742;48.036;15.780;2023-07-16T02:54:50;21.90;99.90
13346;DHT22;6742;48.036;15.780;2023-07-16T02:57:20;21.80;99.90
13346;DHT22;6742;48.036;15.780;2023-07-16T02:59:47;21.80;99.90
13346;DHT22;6742;48.036;15.780;2023-07-16T03:02:14;21.70;99.90
13346;DHT22;6742;48.036;15.780;2023-07-16T03:04:41;21.70;99.90
13346;DHT22;6742;48.036;15.780;2023-07-16T03:07:08;21.70;99.90
13346;DHT22;6742;48.036;15.780;2023-07-16T03:09:35;21.60;99.90
13346;DHT22;6742;48.036;15.780;2023-07-16T03:12:03;21.60;99.90
13346;DHT22;6742;48.036;15.780;2023-07-16T03:14:31;21.60;99.90
13346;DHT22;6742;48.036;15.780;2023-07-16T03:16:58;21.60;99.90
13346;DHT22;6742;48.036;15.780;2023-07-16T03:19:25;21.50;99.90
13346;DHT22;6742;48.036;15.780;2023-07-16T03:21:52;21.50;99.90
13346;DHT22;6742;48.036;15.780;2023-07-16T03:24:19;21.50;99.90
13346;DHT22;6742;48.036;15.780;2023-07-16T03:26:46;21.50;99.90
13346;DHT22;6742;48.036;15.780;2023-07-16T03:29:13;21.40;99.90
13346;DHT22;6742;48.036;15.780;2023-07-16T03:31:41;21.40;99.90
13346;DHT22;6742;48.036;15.780;2023-07-16T03:34:08;21.40;99.90
13346;DHT22;6742;48.036;15.780;2023-07-16T03:36:35;21.40;99.90
13346;DHT22;6742;48.036;15.780;2023-07-16T03:39:02;21.50;99.90
13346;DHT22;6742;48.036;15.780;2023-07-16T03:41:29;21.40;99.90
13346;DHT22;6742;48.036;15.780;2023-07-16T03:43:56;21.50;99.90
13346;DHT22;6742;48.036;15.780;2023-07-16T03:46:26;21.40;99.90
13346;DHT22;6742;48.036;15.780;2023-07-16T03:48:54;21.40;99.90
13346;DHT22;6742;48.036;15.780;2023-07-16T03:51:21;21.40;99.90
13346;DHT22;6742;48.036;15.780;2023-07-16T03:53:48;21.30;99.90
13346;DHT22;6742;48.036;15.780;2023-07-16T03:56:15;21.30;99.90
13346;DHT22;6742;48.036;15.780;2023-07-16T03:58:42;21.30;99.90
13346;DHT22;6742;48.036;15.780;2023-07-16T04:01:10;21.20;99.90
13346;DHT22;6742;48.036;15.780;2023-07-16T04:03:37;21.20;99.90
13346;DHT22;6742;48.036;15.780;2023-07-16T04:06:08;21.20;99.90
13346;DHT22;6742;48.036;15.780;2023-07-16T04:08:36;21.20;99.90
13346;DHT22;6742;48.036;15.780;2023-07-16T04:11:05;21.20;99.90
13346;DHT22;6742;48.036;15.780;2023-07-16T04:13:32;21.20;99.90
13346;DHT22;6742;48.036;15.780;2023-07-16T04:15:59;21.20;99.90
13346;DHT22;6742;48.036;15.780;2023-07-16T04:18:26;21.20;99.90
13346;DHT22;6742;48.036;15.780;2023-07-16T04:20:53;21.20;99.90
13346;DHT22;6742;48.036;15.780;2023-07-16T04:23:22;21.20;99.90
13346;DHT22;6742;48.036;15.780;2023-07-16T04:25:51;21.20;99.90
13346;DHT22;6742;48.036;15.780;2023-07-16T04:28:19;21.10;99.90
13346;DHT22;6742;48.036;15.780;2023-07-16T04:30:46;21.00;99.90
13346;DHT22;6742;48.036;15.780;2023-07-16T04:33:13;20.90;99.90
13346;DHT22;6742;48.036;15.780;2023-07-16T04:35:40;21.00;99.90
13346;DHT22;6742;48.036;15.780;2023-07-16T04:38:07;22.10;99.90
13346;DHT22;6742;48.036;15.780;2023-07-16T04:40:35;23.90;99.90
13346;DHT22;6742;48.036;15.780;2023-07-16T04:43:02;25.50;99.90
13346;DHT22;6742;48.036;15.780;2023-07-16T04:45:29;26.70;99.90
13346;DHT22;6742;48.036;15.780;2023-07-16T04:47:56;27.20;99.40
13346;DHT22;6742;48.036;15.780;2023-07-16T04:50:24;26.30;99.20
13346;DHT22;6742;48.036;15.780;2023-07-16T04:52:51;26.90;99.10
13346;DHT22;6742;48.036;15.780;2023-07-16T04:55:18;27.50;98.10
13346;DHT22;6742;48.036;15.780;2023-07-16T04:57:47;27.60;97.60
13346;DHT22;6742;48.036;15.780;2023-07-16T05:00:14;27.90;97.30
13346;DHT22;6742;48.036;15.780;2023-07-16T05:02:41;28.00;96.50
13346;DHT22;6742;48.036;15.780;2023-07-16T05:05:08;28.30;96.00
13346;DHT22;6742;48.036;15.780;2023-07-16T05:07:35;28.60;95.60
13346;DHT22;6742;48.036;15.780;2023-07-16T05:10:03;28.50;95.50
13346;DHT22;6742;48.036;15.780;2023-07-16T05:12:30;28.60;95.30
13346;DHT22;6742;48.036;15.780;2023-07-16T05:14:58;28.90;94.50
13346;DHT22;6742;48.036;15.780;2023-07-16T05:17:25;29.30;93.90
13346;DHT22;6742;48.036;15.780;2023-07-16T05:19:52;29.60;93.50
13346;DHT22;6742;48.036;15.780;2023-07-16T05:22:19;29.80;92.80
13346;DHT22;6742;48.036;15.780;2023-07-16T05:24:46;29.60;93.30
13346;DHT22;6742;48.036;15.780;2023-07-16T05:27:13;29.30;93.50
13346;DHT22;6742;48.036;15.780;2023-07-16T05:29:40;29.40;93.40
13346;DHT22;6742;48.036;15.780;2023-07-16T05:32:09;29.30;93.40
13346;DHT22;6742;48.036;15.780;2023-07-16T05:34:37;29.30;92.70
13346;DHT22;6742;48.036;15.780;2023-07-16T05:37:05;29.20;92.80
13346;DHT22;6742;48.036;15.780;2023-07-16T05:39:32;29.30;92.50
13346;DHT22;6742;48.036;15.780;2023-07-16T05:41:59;29.60;92.60
13346;DHT22;6742;48.036;15.780;2023-07-16T05:44:27;29.60;92.40
13346;DHT22;6742;48.036;15.780;2023-07-16T05:46:54;29.40;92.30
13346;DHT22;6742;48.036;15.780;2023-07-16T05:49:23;29.10;92.70
13346;DHT22;6742;48.036;15.780;2023-07-16T05:51:51;29.10;92.50
13346;DHT22;6742;48.036;15.780;2023-07-16T05:54:19;28.60;93.40
13346;DHT22;6742;48.036;15.780;2023-07-16T05:56:47;28.20;94.10
13346;DHT22;6742;48.036;15.780;2023-07-16T05:59:14;28.00;94.20
13346;DHT22;6742;48.036;15.780;2023-07-16T06:01:41;28.10;94.50
13346;DHT22;6742;48.036;15.780;2023-07-16T06:04:08;27.70;94.70
13346;DHT22;6742;48.036;15.780;2023-07-16T06:06:36;27.70;94.90
13346;DHT22;6742;48.036;15.780;2023-07-16T06:09:03;27.90;94.60
13346;DHT22;6742;48.036;15.780;2023-07-16T06:11:31;28.00;94.40
13346;DHT22;6742;48.036;15.780;2023-07-16T06:13:58;28.20;94.60
13346;DHT22;6742;48.036;15.780;2023-07-16T06:16:25;27.90;94.40
13346;DHT22;6742;48.036;15.780;2023-07-16T06:18:52;27.60;94.90
13346;DHT22;6742;48.036;15.780;2023-07-16T06:21:19;27.20;95.20
13346;DHT22;6742;48.036;15.780;2023-07-16T06:23:47;26.70;95.80
13346;DHT22;6742;48.036;15.780;2023-07-16T06:26:14;26.50;96.10
13346;DHT22;6742;48.036;15.780;2023-07-16T06:28:41;26.30;96.40
13346;DHT22;6742;48.036;15.780;2023-07-16T06:31:08;26.20;96.60
13346;DHT22;6742;48.036;15.780;2023-07-16T06:33:35;26.10;96.80
13346;DHT22;6742;48.036;15.780;2023-07-16T06:36:02;26.00;97.10
13346;DHT22;6742;48.036;15.780;2023-07-16T06:38:29;26.00;97.10
13346;DHT22;6742;48.036;15.780;2023-07-16T06:40:58;26.10;96.70
13346;DHT22;6742;48.036;15.780;2023-07-16T06:43:25;26.40;96.80
13346;DHT22;6742;48.036;15.780;2023-07-16T06:45:52;26.60;96.70
13346;DHT22;6742;48.036;15.780;2023-07-16T06:48:19;26.90;96.80
13346;DHT22;6742;48.036;15.780;2023-07-16T06:50:46;27.30;96.40
13346;DHT22;6742;48.036;15.780;2023-07-16T06:53:14;27.80;96.10
13346;DHT22;6742;48.036;15.780;2023-07-16T06:55:41;28.20;94.70
13346;DHT22;6742;48.036;15.780;2023-07-16T06:58:13;28.30;94.50
13346;DHT22;6742;48.036;15.780;2023-07-16T07:00:40;28.80;94.20
13346;DHT22;6742;48.036;15.780;2023-07-16T07:03:07;29.30;93.30
13346;DHT22;6742;48.036;15.780;2023-07-16T07:05:34;29.80;92.60
13346;DHT22;6742;48.036;15.780;2023-07-16T07:08:02;30.10;91.70
13346;DHT22;6742;48.036;15.780;2023-07-16T07:10:29;30.40;91.60
13346;DHT22;6742;48.036;15.780;2023-07-16T07:12:58;30.70;91.70
13346;DHT22;6742;48.036;15.780;2023-07-16T07:15:26;30.80;91.00
13346;DHT22;6742;48.036;15.780;2023-07-16T07:17:53;30.80;91.00
13346;DHT22;6742;48.036;15.780;2023-07-16T07:20:20;30.90;90.20
13346;DHT22;6742;48.036;15.780;2023-07-16T07:22:47;31.00;90.20
13346;DHT22;6742;48.036;15.780;2023-07-16T07:25:14;30.90;90.20
13346;DHT22;6742;48.036;15.780;2023-07-16T07:27:41;30.70;90.20
13346;DHT22;6742;48.036;15.780;2023-07-16T07:30:09;30.70;88.60
13346;DHT22;6742;48.036;15.780;2023-07-16T07:32:38;30.70;89.60
13346;DHT22;6742;48.036;15.780;2023-07-16T07:35:05;31.00;90.10
13346;DHT22;6742;48.036;15.780;2023-07-16T07:37:32;31.40;89.50
13346;DHT22;6742;48.036;15.780;2023-07-16T07:39:59;31.80;88.10
13346;DHT22;6742;48.036;15.780;2023-07-16T07:42:26;31.90;87.60
13346;DHT22;6742;48.036;15.780;2023-07-16T07:44:54;31.80;87.40
13346;DHT22;6742;48.036;15.780;2023-07-16T07:47:21;31.80;87.40
13346;DHT22;6742;48.036;15.780;2023-07-16T07:49:52;31.70;88.50
13346;DHT22;6742;48.036;15.780;2023-07-16T07:52:19;31.60;88.20
13346;DHT22;6742;48.036;15.780;2023-07-16T07:54:46;31.70;86.80
13346;DHT22;6742;48.036;15.780;2023-07-16T07:57:14;31.70;88.60
13346;DHT22;6742;48.036;15.780;2023-07-16T07:59:41;31.80;88.40
13346;DHT22;6742;48.036;15.780;2023-07-16T08:02:08;31.70;88.50
13346;DHT22;6742;48.036;15.780;2023-07-16T08:04:35;31.70;88.10
13346;DHT22;6742;48.036;15.780;2023-07-16T08:07:04;31.60;88.10
13346;DHT22;6742;48.036;15.780;2023-07-16T08:09:31;31.80;88.70
13346;DHT22;6742;48.036;15.780;2023-07-16T08:11:58;32.00;87.70
13346;DHT22;6742;48.036;15.780;2023-07-16T08:14:25;32.10;89.70
13346;DHT22;6742;48.036;15.780;2023-07-16T08:16:52;32.30;87.20
13346;DHT22;6742;48.036;15.780;2023-07-16T08:19:19;32.30;87.70
13346;DHT22;6742;48.036;15.780;2023-07-16T08:21:46;32.50;87.30
13346;DHT22;6742;48.036;15.780;2023-07-16T08:24:14;32.20;87.30
13346;DHT22;6742;48.036;15.780;2023-07-16T08:26:41;32.20;86.90
13346;DHT22;6742;48.036;15.780;2023-07-16T08:29:08;32.30;87.80
13346;DHT22;6742;48.036;15.780;2023-07-16T08:31:35;32.50;86.70
13346;DHT22;6742;48.036;15.780;2023-07-16T08:34:02;32.50;87.80
13346;DHT22;6742;48.036;15.780;2023-07-16T08:36:29;32.80;85.10
13346;DHT22;6742;48.036;15.780;2023-07-16T08:38:56;33.00;86.10
13346;DHT22;6742;48.036;15.780;2023-07-16T08:41:25;33.10;86.00
13346;DHT22;6742;48.036;15.780;2023-07-16T08:43:53;33.20;85.00
13346;DHT22;6742;48.036;15.780;2023-07-16T08:46:20;33.40;85.10
13346;DHT22;6742;48.036;15.780;2023-07-16T08:48:48;33.60;85.20
13346;DHT22;6742;48.036;15.780;2023-07-16T08:51:15;33.80;85.10
13346;DHT22;6742;48.036;15.780;2023-07-16T08:53:44;33.80;84.20
13346;DHT22;6742;48.036;15.780;2023-07-16T08:56:11;34.00;83.50
13346;DHT22;6742;48.036;15.780;2023-07-16T08:58:42;33.90;83.20
13346;DHT22;6742;48.036;15.780;2023-07-16T09:01:09;33.90;82.70
13346;DHT22;6742;48.036;15.780;2023-07-16T09:03:37;33.80;82.70
13346;DHT22;6742;48.036;15.780;2023-07-16T09:06:04;33.80;82.80
13346;DHT22;6742;48.036;15.780;2023-07-16T09:08:31;33.80;82.90
13346;DHT22;6742;48.036;15.780;2023-07-16T09:10:59;33.90;83.50
13346;DHT22;6742;48.036;15.780;2023-07-16T09:13:29;33.80;83.30
13346;DHT22;6742;48.036;15.780;2023-07-16T09:15:58;33.90;82.50
13346;DHT22;6742;48.036;15.780;2023-07-16T09:18:27;34.00;82.10
13346;DHT22;6742;48.036;15.780;2023-07-16T09:20:55;34.10;81.90
13346;DHT22;6742;48.036;15.780;2023-07-16T09:23:24;34.20;82.10
13346;DHT22;6742;48.036;15.780;2023-07-16T09:25:53;34.40;81.70
13346;DHT22;6742;48.036;15.780;2023-07-16T09:28:20;34.50;80.70
13346;DHT22;6742;48.036;15.780;2023-07-16T09:30:48;34.20;82.10
13346;DHT22;6742;48.036;15.780;2023-07-16T09:33:18;34.20;82.50
13346;DHT22;6742;48.036;15.780;2023-07-16T09:35:48;34.30;83.30
13346;DHT22;6742;48.036;15.780;2023-07-16T09:38:16;34.30;84.10
13346;DHT22;6742;48.036;15.780;2023-07-16T09:40:43;34.20;82.50
13346;DHT22;6742;48.036;15.780;2023-07-16T09:43:11;34.20;83.50
13346;DHT22;6742;48.036;15.780;2023-07-16T09:45:39;34.20;84.60
13346;DHT22;6742;48.036;15.780;2023-07-16T09:48:06;34.40;85.60
13346;DHT22;6742;48.036;15.780;2023-07-16T09:50:36;34.40;83.10
13346;DHT22;6742;48.036;15.780;2023-07-16T09:53:04;33.60;82.60
13346;DHT22;6742;48.036;15.780;2023-07-16T09:55:34;33.50;84.20
13346;DHT22;6742;48.036;15.780;2023-07-16T09:58:04;33.60;83.20
13346;DHT22;6742;48.036;15.780;2023-07-16T10:00:33;33.80;83.40
13346;DHT22;6742;48.036;15.780;2023-07-16T10:03:01;33.90;83.20
13346;DHT22;6742;48.036;15.780;2023-07-16T10:05:28;33.80;83.30
13346;DHT22;6742;48.036;15.780;2023-07-16T10:07:58;33.90;82.30
13346;DHT22;6742;48.036;15.780;2023-07-16T10:10:26;33.80;82.10
13346;DHT22;6742;48.036;15.780;2023-07-16T10:12:57;33.80;82.80
13346;DHT22;6742;48.036;15.780;2023-07-16T10:15:26;34.00;83.50
13346;DHT22;6742;48.036;15.780;2023-07-16T10:17:54;34.20;84.40
13346;DHT22;6742;48.036;15.780;2023-07-16T10:20:29;34.40;82.80
13346;DHT22;6742;48.036;15.780;2023-07-16T10:22:58;34.00;81.60
13346;DHT22;6742;48.036;15.780;2023-07-16T10:25:26;33.80;81.60
13346;DHT22;6742;48.036;15.780;2023-07-16T10:27:55;34.00;83.80
13346;DHT22;6742;48.036;15.780;2023-07-16T10:30:22;34.10;84.40
13346;DHT22;6742;48.036;15.780;2023-07-16T10:32:51;34.00;84.50
13346;DHT22;6742;48.036;15.780;2023-07-16T10:35:19;34.10;84.10
13346;DHT22;6742;48.036;15.780;2023-07-16T10:37:46;34.40;81.90
13346;DHT22;6742;48.036;15.780;2023-07-16T10:40:15;34.50;82.60
13346;DHT22;6742;48.036;15.780;2023-07-16T10:42:43;34.50;80.80
13346;DHT22;6742;48.036;15.780;2023-07-16T10:45:12;34.60;81.90
13346;DHT22;6742;48.036;15.780;2023-07-16T10:47:49;34.60;83.80
13346;DHT22;6742;48.036;15.780;2023-07-16T10:50:18;34.60;81.20
13346;DHT22;6742;48.036;15.780;2023-07-16T10:52:46;34.60;82.00
13346;DHT22;6742;48.036;15.780;2023-07-16T10:55:14;34.40;80.60
13346;DHT22;6742;48.036;15.780;2023-07-16T10:57:41;34.50;80.40
13346;DHT22;6742;48.036;15.780;2023-07-16T11:00:11;34.20;81.10
13346;DHT22;6742;48.036;15.780;2023-07-16T11:02:39;34.30;79.80
13346;DHT22;6742;48.036;15.780;2023-07-16T11:05:10;34.50;81.30
13346;DHT22;6742;48.036;15.780;2023-07-16T11:07:37;34.60;79.80
13346;DHT22;6742;48.036;15.780;2023-07-16T11:10:05;34.60;78.40
13346;DHT22;6742;48.036;15.780;2023-07-16T11:12:33;34.60;80.10
13346;DHT22;6742;48.036;15.780;2023-07-16T11:15:00;34.30;80.70
13346;DHT22;6742;48.036;15.780;2023-07-16T11:17:27;34.40;80.70
13346;DHT22;6742;48.036;15.780;2023-07-16T11:19:55;34.30;78.50
13346;DHT22;6742;48.036;15.780;2023-07-16T11:22:25;34.20;79.70
13346;DHT22;6742;48.036;15.780;2023-07-16T11:24:53;34.20;81.40
13346;DHT22;6742;48.036;15.780;2023-07-16T11:27:22;34.30;79.40
13346;DHT22;6742;48.036;15.780;2023-07-16T11:29:52;34.40;80.10
13346;DHT22;6742;48.036;15.780;2023-07-16T11:32:27;34.50;82.00
13346;DHT22;6742;48.036;15.780;2023-07-16T11:34:55;34.40;78.70
13346;DHT22;6742;48.036;15.780;2023-07-16T11:37:23;34.40;77.50
13346;DHT22;6742;48.036;15.780;2023-07-16T11:39:50;34.50;80.80
13346;DHT22;6742;48.036;15.780;2023-07-16T11:42:23;34.40;79.80
13346;DHT22;6742;48.036;15.780;2023-07-16T11:44:52;34.40;79.20
13346;DHT22;6742;48.036;15.780;2023-07-16T11:47:20;34.20;79.50
13346;DHT22;6742;48.036;15.780;2023-07-16T11:49:47;34.20;79.30
13346;DHT22;6742;48.036;15.780;2023-07-16T11:52:18;34.20;78.90
13346;DHT22;6742;48.036;15.780;2023-07-16T11:54:46;34.00;80.80
13346;DHT22;6742;48.036;15.780;2023-07-16T11:57:13;33.90;79.30
13346;DHT22;6742;48.036;15.780;2023-07-16T11:59:40;34.00;81.70
13346;DHT22;6742;48.036;15.780;2023-07-16T12:02:09;34.20;81.50
13346;DHT22;6742;48.036;15.780;2023-07-16T12:07:04;34.30;80.50
13346;DHT22;6742;48.036;15.780;2023-07-16T12:09:31;34.30;80.30
13346;DHT22;6742;48.036;15.780;2023-07-16T12:11:58;34.20;80.20
13346;DHT22;6742;48.036;15.780;2023-07-16T12:14:26;34.20;79.80
13346;DHT22;6742;48.036;15.780;2023-07-16T12:16:52;34.20;79.70
13346;DHT22;6742;48.036;15.780;2023-07-16T12:19:21;34.10;78.40
13346;DHT22;6742;48.036;15.780;2023-07-16T12:21:48;34.00;80.70
13346;DHT22;6742;48.036;15.780;2023-07-16T12:24:15;33.70;79.60
13346;DHT22;6742;48.036;15.780;2023-07-16T12:26:42;33.70;80.00
13346;DHT22;6742;48.036;15.780;2023-07-16T12:29:09;33.60;81.60
13346;DHT22;6742;48.036;15.780;2023-07-16T12:31:36;33.50;79.30
13346;DHT22;6742;48.036;15.780;2023-07-16T12:34:03;33.30;82.10
13346;DHT22;6742;48.036;15.780;2023-07-16T12:36:32;33.40;80.90
13346;DHT22;6742;48.036;15.780;2023-07-16T12:38:59;33.40;80.70
13346;DHT22;6742;48.036;15.780;2023-07-16T12:41:26;33.40;81.90
13346;DHT22;6742;48.036;15.780;2023-07-16T12:43:53;33.40;81.30
13346;DHT22;6742;48.036;15.780;2023-07-16T12:46:20;33.50;79.70
13346;DHT22;6742;48.036;15.780;2023-07-16T12:48:47;33.40;81.10
13346;DHT22;6742;48.036;15.780;2023-07-16T12:51:14;33.50;79.30
13346;DHT22;6742;48.036;15.780;2023-07-16T12:53:42;33.40;79.50
13346;DHT22;6742;48.036;15.780;2023-07-16T12:56:10;33.30;80.10
13346;DHT22;6742;48.036;15.780;2023-07-16T12:58:37;33.20;80.20
13346;DHT22;6742;48.036;15.780;2023-07-16T13:01:04;33.10;81.10
13346;DHT22;6742;48.036;15.780;2023-07-16T13:03:31;33.10;80.90
13346;DHT22;6742;48.036;15.780;2023-07-16T13:05:58;33.00;82.60
13346;DHT22;6742;48.036;15.780;2023-07-16T13:08:25;33.00;80.80
13346;DHT22;6742;48.036;15.780;2023-07-16T13:10:53;32.90;79.20
13346;DHT22;6742;48.036;15.780;2023-07-16T13:13:20;33.00;77.70
13346;DHT22;6742;48.036;15.780;2023-07-16T13:15:47;32.90;80.80
13346;DHT22;6742;48.036;15.780;2023-07-16T13:18:14;32.80;80.30
13346;DHT22;6742;48.036;15.780;2023-07-16T13:20:42;32.70;80.20
13346;DHT22;6742;48.036;15.780;2023-07-16T13:23:09;32.80;81.40
13346;DHT22;6742;48.036;15.780;2023-07-16T13:25:36;32.80;78.60
13346;DHT22;6742;48.036;15.780;2023-07-16T13:28:05;32.80;80.10
13346;DHT22;6742;48.036;15.780;2023-07-16T13:30:33;32.70;79.60
13346;DHT22;6742;48.036;15.780;2023-07-16T13:33:00;32.80;79.90
13346;DHT22;6742;48.036;15.780;2023-07-16T13:35:27;32.70;78.50
13346;DHT22;6742;48.036;15.780;2023-07-16T13:37:54;32.60;81.70
13346;DHT22;6742;48.036;15.780;2023-07-16T13:40:21;32.50;81.30
13346;DHT22;6742;48.036;15.780;2023-07-16T13:42:48;32.50;80.00
13346;DHT22;6742;48.036;15.780;2023-07-16T13:45:16;32.50;80.20
13346;DHT22;6742;48.036;15.780;2023-07-16T13:47:43;32.40;79.60
13346;DHT22;6742;48.036;15.780;2023-07-16T13:50:10;32.40;79.30
13346;DHT22;6742;48.036;15.780;2023-07-16T13:52:37;32.30;79.20
13346;DHT22;6742;48.036;15.780;2023-07-16T13:55:05;32.20;78.90
13346;DHT22;6742;48.036;15.780;2023-07-16T13:57:32;32.30;81.00
13346;DHT22;6742;48.036;15.780;2023-07-16T13:59:59;32.20;77.70
13346;DHT22;6742;48.036;15.780;2023-07-16T14:02:28;32.10;78.60
13346;DHT22;6742;48.036;15.780;2023-07-16T14:04:55;32.10;77.60
13346;DHT22;6742;48.036;15.780;2023-07-16T14:07:22;32.20;77.60
13346;DHT22;6742;48.036;15.780;2023-07-16T14:09:49;32.20;79.10
13346;DHT22;6742;48.036;15.780;2023-07-16T14:12:16;32.30;77.80
13346;DHT22;6742;48.036;15.780;2023-07-16T14:14:43;32.30;78.10
13346;DHT22;6742;48.036;15.780;2023-07-16T14:17:10;32.30;77.90
13346;DHT22;6742;48.036;15.780;2023-07-16T14:19:41;32.10;79.50
13346;DHT22;6742;48.036;15.780;2023-07-16T14:22:08;32.10;78.20
13346;DHT22;6742;48.036;15.780;2023-07-16T14:24:37;32.00;80.00
13346;DHT22;6742;48.036;15.780;2023-07-16T14:27:06;31.90;77.50
13346;DHT22;6742;48.036;15.780;2023-07-16T14:29:33;32.00;77.00
13346;DHT22;6742;48.036;15.780;2023-07-16T14:32:00;31.90;78.40
13346;DHT22;6742;48.036;15.780;2023-07-16T14:34:27;31.90;78.20
13346;DHT22;6742;48.036;15.780;2023-07-16T14:36:56;31.90;80.80
13346;DHT22;6742;48.036;15.780;2023-07-16T14:39:23;31.80;79.30
13346;DHT22;6742;48.036;15.780;2023-07-16T14:41:50;31.80;79.30
13346;DHT22;6742;48.036;15.780;2023-07-16T14:44:17;31.70;78.60
13346;DHT22;6742;48.036;15.780;2023-07-16T14:46:44;31.70;77.60
13346;DHT22;6742;48.036;15.780;2023-07-16T14:49:10;31.60;78.40
13346;DHT22;6742;48.036;15.780;2023-07-16T14:51:37;31.70;78.50
13346;DHT22;6742;48.036;15.780;2023-07-16T14:54:08;31.60;79.50
13346;DHT22;6742;48.036;15.780;2023-07-16T14:56:36;31.50;79.30
13346;DHT22;6742;48.036;15.780;2023-07-16T14:59:03;31.50;78.90
13346;DHT22;6742;48.036;15.780;2023-07-16T15:01:30;31.40;78.50
13346;DHT22;6742;48.036;15.780;2023-07-16T15:03:57;31.40;78.40
13346;DHT22;6742;48.036;15.780;2023-07-16T15:06:24;31.40;80.90
13346;DHT22;6742;48.036;15.780;2023-07-16T15:08:52;31.30;78.80
13346;DHT22;6742;48.036;15.780;2023-07-16T15:11:20;31.30;79.60
13346;DHT22;6742;48.036;15.780;2023-07-16T15:13:47;31.30;79.20
13346;DHT22;6742;48.036;15.780;2023-07-16T15:16:14;31.20;80.70
13346;DHT22;6742;48.036;15.780;2023-07-16T15:18:41;31.30;79.80
13346;DHT22;6742;48.036;15.780;2023-07-16T15:21:08;31.30;80.10
13346;DHT22;6742;48.036;15.780;2023-07-16T15:23:35;31.30;79.10
13346;DHT22;6742;48.036;15.780;2023-07-16T15:26:04;31.20;79.60
13346;DHT22;6742;48.036;15.780;2023-07-16T15:28:33;31.20;78.30
13346;DHT22;6742;48.036;15.780;2023-07-16T15:31:02;31.10;78.80
13346;DHT22;6742;48.036;15.780;2023-07-16T15:33:30;31.10;78.00
13346;DHT22;6742;48.036;15.780;2023-07-16T15:35:57;31.20;78.20
13346;DHT22;6742;48.036;15.780;2023-07-16T15:38:24;31.00;79.50